sensor_id;sensor_type;location;lat;lon;timestamp;P1;durP1;ratioP1;P2;durP2;ratioP2
16403;SDS011;8311;50.158;8.642;2023-12-14T00:02:05;13.32;;;4.30;;
16403;SDS011;8311;50.158;8.642;2023-12-14T00:04:58;11.75;;;3.15;;
16403;SDS011;8311;50.158;8.642;2023-12-14T00:07:51;14.13;;;3.25;;
16403;SDS011;8311;50.158;8.642;2023-12-14T00:10:45;12.45;;;3.90;;
16403;SDS011;8311;50.158;8.642;2023-12-14T00:13:39;11.57;;;3.78;;
16403;SDS011;8311;50.158;8.642;2023-12-14T00:16:32;9.48;;;3.40;;
16403;SDS011;8311;50.158;8.642;2023-12-14T00:19:25;9.18;;;2.88;;
16403;SDS011;8311;50.158;8.642;2023-12-14T00:22:19;10.60;;;3.47;;
16403;SDS011;8311;50.158;8.642;2023-12-14T00:25:12;9.88;;;3.58;;
16403;SDS011;8311;50.158;8.642;2023-12-14T00:28:06;6.90;;;2.90;;
16403;SDS011;8311;50.158;8.642;2023-12-14T00:31:00;11.15;;;3.20;;
16403;SDS011;8311;50.158;8.642;2023-12-14T00:33:53;10.32;;;2.47;;
16403;SDS011;8311;50.158;8.642;2023-12-14T00:36:46;7.75;;;2.90;;
16403;SDS011;8311;50.158;8.642;2023-12-14T00:39:38;8.60;;;2.67;;
16403;SDS011;8311;50.158;8.642;2023-12-14T00:42:32;15.82;;;2.85;;
16403;SDS011;8311;50.158;8.642;2023-12-14T00:45:27;11.95;;;2.78;;
16403;SDS011;8311;50.158;8.642;2023-12-14T00:48:20;10.40;;;3.58;;
16403;SDS011;8311;50.158;8.642;2023-12-14T00:51:13;11.10;;;3.53;;
16403;SDS011;8311;50.158;8.642;2023-12-14T00:54:06;10.65;;;3.15;;
16403;SDS011;8311;50.158;8.642;2023-12-14T00:56:59;8.85;;;2.88;;
16403;SDS011;8311;50.158;8.642;2023-12-14T00:59:52;9.75;;;3.10;;
16403;SDS011;8311;50.158;8.642;2023-12-14T01:02:47;9.68;;;2.90;;
16403;SDS011;8311;50.158;8.642;2023-12-14T01:05:41;8.20;;;3.10;;
16403;SDS011;8311;50.158;8.642;2023-12-14T01:08:34;8.10;;;3.22;;
16403;SDS011;8311;50.158;8.642;2023-12-14T01:11:27;9.02;;;3.15;;
16403;SDS011;8311;50.158;8.642;2023-12-14T01:14:20;9.23;;;2.88;;
16403;SDS011;8311;50.158;8.642;2023-12-14T01:17:13;7.97;;;2.70;;
16403;SDS011;8311;50.158;8.642;2023-12-14T01:20:10;8.40;;;3.22;;
16403;SDS011;8311;50.158;8.642;2023-12-14T01:23:04;11.52;;;2.97;;
16403;SDS011;8311;50.158;8.642;2023-12-14T01:25:57;8.52;;;2.40;;
16403;SDS011;8311;50.158;8.642;2023-12-14T01:28:51;8.82;;;3.03;;
16403;SDS011;8311;50.158;8.642;2023-12-14T01:31:44;9.80;;;2.72;;
16403;SDS011;8311;50.158;8.642;2023-12-14T01:34:37;8.13;;;2.70;;
16403;SDS011;8311;50.158;8.642;2023-12-14T01:37:31;8.32;;;2.70;;
16403;SDS011;8311;50.158;8.642;2023-12-14T01:40:24;8.73;;;2.60;;
16403;SDS011;8311;50.158;8.642;2023-12-14T01:43:17;11.00;;;3.35;;
16403;SDS011;8311;50.158;8.642;2023-12-14T01:46:10;5.25;;;1.92;;
16403;SDS011;8311;50.158;8.642;2023-12-14T01:49:04;9.18;;;2.25;;
16403;SDS011;8311;50.158;8.642;2023-12-14T01:51:57;6.18;;;2.42;;
16403;SDS011;8311;50.158;8.642;2023-12-14T01:54:51;8.02;;;2.45;;
16403;SDS011;8311;50.158;8.642;2023-12-14T01:57:47;7.20;;;2.55;;
16403;SDS011;8311;50.158;8.642;2023-12-14T02:00:42;9.85;;;2.75;;
16403;SDS011;8311;50.158;8.642;2023-12-14T02:03:43;13.32;;;2.70;;
16403;SDS011;8311;50.158;8.642;2023-12-14T02:06:37;9.90;;;3.30;;
16403;SDS011;8311;50.158;8.642;2023-12-14T02:09:30;8.25;;;2.63;;
16403;SDS011;8311;50.158;8.642;2023-12-14T02:12:24;8.40;;;2.83;;
16403;SDS011;8311;50.158;8.642;2023-12-14T02:15:18;5.15;;;2.20;;
16403;SDS011;8311;50.158;8.642;2023-12-14T02:18:11;8.50;;;2.72;;
16403;SDS011;8311;50.158;8.642;2023-12-14T02:21:04;9.32;;;2.40;;
16403;SDS011;8311;50.158;8.642;2023-12-14T02:23:58;6.80;;;2.60;;
16403;SDS011;8311;50.158;8.642;2023-12-14T02:26:52;5.50;;;2.30;;
16403;SDS011;8311;50.158;8.642;2023-12-14T02:29:54;9.93;;;2.67;;
16403;SDS011;8311;50.158;8.642;2023-12-14T02:32:47;7.55;;;2.55;;
16403;SDS011;8311;50.158;8.642;2023-12-14T02:35:40;7.75;;;2.50;;
16403;SDS011;8311;50.158;8.642;2023-12-14T02:38:33;4.10;;;2.08;;
16403;SDS011;8311;50.158;8.642;2023-12-14T02:41:27;6.45;;;2.72;;
16403;SDS011;8311;50.158;8.642;2023-12-14T02:44:20;7.60;;;2.42;;
16403;SDS011;8311;50.158;8.642;2023-12-14T02:47:13;6.22;;;2.30;;
16403;SDS011;8311;50.158;8.642;2023-12-14T02:50:06;5.72;;;2.58;;
16403;SDS011;8311;50.158;8.642;2023-12-14T02:53:00;8.95;;;2.30;;
16403;SDS011;8311;50.158;8.642;2023-12-14T02:55:54;5.68;;;2.10;;
16403;SDS011;8311;50.158;8.642;2023-12-14T02:58:48;6.78;;;2.55;;
16403;SDS011;8311;50.158;8.642;2023-12-14T03:01:42;8.80;;;2.67;;
16403;SDS011;8311;50.158;8.642;2023-12-14T03:04:37;6.53;;;1.98;;
16403;SDS011;8311;50.158;8.642;2023-12-14T03:07:30;4.45;;;1.95;;
16403;SDS011;8311;50.158;8.642;2023-12-14T03:10:23;6.10;;;2.80;;
16403;SDS011;8311;50.158;8.642;2023-12-14T03:13:16;9.65;;;2.45;;
16403;SDS011;8311;50.158;8.642;2023-12-14T03:16:10;6.57;;;2.55;;
16403;SDS011;8311;50.158;8.642;2023-12-14T03:19:03;7.10;;;2.28;;
16403;SDS011;8311;50.158;8.642;2023-12-14T03:21:57;8.75;;;2.47;;
16403;SDS011;8311;50.158;8.642;2023-12-14T03:24:50;4.97;;;2.30;;
16403;SDS011;8311;50.158;8.642;2023-12-14T03:27:43;6.80;;;2.42;;
16403;SDS011;8311;50.158;8.642;2023-12-14T03:30:36;8.13;;;2.63;;
16403;SDS011;8311;50.158;8.642;2023-12-14T03:33:30;6.30;;;2.20;;
16403;SDS011;8311;50.158;8.642;2023-12-14T03:36:24;6.25;;;2.45;;
16403;SDS011;8311;50.158;8.642;2023-12-14T03:39:18;7.60;;;2.47;;
16403;SDS011;8311;50.158;8.642;2023-12-14T03:42:11;6.68;;;2.20;;
16403;SDS011;8311;50.158;8.642;2023-12-14T03:45:04;6.35;;;2.30;;
16403;SDS011;8311;50.158;8.642;2023-12-14T03:47:59;6.68;;;2.03;;
16403;SDS011;8311;50.158;8.642;2023-12-14T03:50:53;6.85;;;2.05;;
16403;SDS011;8311;50.158;8.642;2023-12-14T03:53:47;6.68;;;2.58;;
16403;SDS011;8311;50.158;8.642;2023-12-14T03:56:40;7.85;;;2.30;;
16403;SDS011;8311;50.158;8.642;2023-12-14T03:59:33;7.38;;;2.25;;
16403;SDS011;8311;50.158;8.642;2023-12-14T04:02:26;6.47;;;2.38;;
16403;SDS011;8311;50.158;8.642;2023-12-14T04:05:20;7.25;;;2.25;;
16403;SDS011;8311;50.158;8.642;2023-12-14T04:08:15;7.00;;;2.25;;
16403;SDS011;8311;50.158;8.642;2023-12-14T04:11:08;6.03;;;2.13;;
16403;SDS011;8311;50.158;8.642;2023-12-14T04:14:02;6.30;;;2.20;;
16403;SDS011;8311;50.158;8.642;2023-12-14T04:16:56;7.50;;;2.45;;
16403;SDS011;8311;50.158;8.642;2023-12-14T04:19:49;6.80;;;2.42;;
16403;SDS011;8311;50.158;8.642;2023-12-14T04:22:43;7.82;;;2.03;;
16403;SDS011;8311;50.158;8.642;2023-12-14T04:25:37;5.57;;;2.20;;
16403;SDS011;8311;50.158;8.642;2023-12-14T04:28:31;5.35;;;1.80;;
16403;SDS011;8311;50.158;8.642;2023-12-14T04:31:24;6.47;;;2.35;;
16403;SDS011;8311;50.158;8.642;2023-12-14T04:34:17;6.53;;;2.30;;
16403;SDS011;8311;50.158;8.642;2023-12-14T04:37:10;5.68;;;2.28;;
16403;SDS011;8311;50.158;8.642;2023-12-14T04:40:03;7.60;;;2.08;;
16403;SDS011;8311;50.158;8.642;2023-12-14T04:42:58;4.63;;;1.88;;
16403;SDS011;8311;50.158;8.642;2023-12-14T04:45:51;6.28;;;1.88;;
16403;SDS011;8311;50.158;8.642;2023-12-14T04:48:45;6.32;;;2.10;;
16403;SDS011;8311;50.158;8.642;2023-12-14T04:51:38;5.22;;;2.33;;
16403;SDS011;8311;50.158;8.642;2023-12-14T04:54:31;5.47;;;1.98;;
16403;SDS011;8311;50.158;8.642;2023-12-14T04:57:27;4.88;;;1.98;;
16403;SDS011;8311;50.158;8.642;2023-12-14T05:00:21;7.68;;;2.53;;
16403;SDS011;8311;50.158;8.642;2023-12-14T05:03:15;6.30;;;2.15;;
16403;SDS011;8311;50.158;8.642;2023-12-14T05:06:08;5.53;;;2.20;;
16403;SDS011;8311;50.158;8.642;2023-12-14T05:09:01;7.20;;;2.13;;
16403;SDS011;8311;50.158;8.642;2023-12-14T05:11:56;5.28;;;2.15;;
16403;SDS011;8311;50.158;8.642;2023-12-14T05:14:50;7.90;;;2.70;;
16403;SDS011;8311;50.158;8.642;2023-12-14T05:17:46;5.47;;;2.08;;
16403;SDS011;8311;50.158;8.642;2023-12-14T05:20:39;6.53;;;2.05;;
16403;SDS011;8311;50.158;8.642;2023-12-14T05:23:32;7.00;;;2.40;;
16403;SDS011;8311;50.158;8.642;2023-12-14T05:26:25;11.45;;;2.28;;
16403;SDS011;8311;50.158;8.642;2023-12-14T05:29:18;6.90;;;1.95;;
16403;SDS011;8311;50.158;8.642;2023-12-14T05:32:13;4.38;;;2.28;;
16403;SDS011;8311;50.158;8.642;2023-12-14T05:35:08;8.23;;;2.40;;
16403;SDS011;8311;50.158;8.642;2023-12-14T05:38:02;10.60;;;2.50;;
16403;SDS011;8311;50.158;8.642;2023-12-14T05:40:55;8.98;;;2.53;;
16403;SDS011;8311;50.158;8.642;2023-12-14T05:43:48;5.70;;;2.05;;
16403;SDS011;8311;50.158;8.642;2023-12-14T05:46:41;7.22;;;2.03;;
16403;SDS011;8311;50.158;8.642;2023-12-14T05:49:34;6.60;;;2.03;;
16403;SDS011;8311;50.158;8.642;2023-12-14T05:52:29;5.57;;;2.40;;
16403;SDS011;8311;50.158;8.642;2023-12-14T05:55:23;5.90;;;2.05;;
16403;SDS011;8311;50.158;8.642;2023-12-14T05:58:16;6.15;;;1.90;;
16403;SDS011;8311;50.158;8.642;2023-12-14T06:01:10;4.68;;;2.00;;
16403;SDS011;8311;50.158;8.642;2023-12-14T06:04:03;6.55;;;2.25;;
16403;SDS011;8311;50.158;8.642;2023-12-14T06:06:56;5.30;;;1.92;;
16403;SDS011;8311;50.158;8.642;2023-12-14T06:09:50;4.95;;;1.90;;
16403;SDS011;8311;50.158;8.642;2023-12-14T06:12:43;4.70;;;2.05;;
16403;SDS011;8311;50.158;8.642;2023-12-14T06:15:36;5.97;;;2.50;;
16403;SDS011;8311;50.158;8.642;2023-12-14T06:18:29;4.13;;;1.75;;
16403;SDS011;8311;50.158;8.642;2023-12-14T06:21:23;6.45;;;2.17;;
16403;SDS011;8311;50.158;8.642;2023-12-14T06:24:20;4.30;;;2.05;;
16403;SDS011;8311;50.158;8.642;2023-12-14T06:27:16;4.53;;;2.13;;
16403;SDS011;8311;50.158;8.642;2023-12-14T06:30:09;6.78;;;2.38;;
16403;SDS011;8311;50.158;8.642;2023-12-14T06:33:03;4.18;;;1.60;;
16403;SDS011;8311;50.158;8.642;2023-12-14T06:35:56;6.88;;;2.05;;
16403;SDS011;8311;50.158;8.642;2023-12-14T06:38:49;6.22;;;1.90;;
16403;SDS011;8311;50.158;8.642;2023-12-14T06:41:42;5.95;;;1.80;;
16403;SDS011;8311;50.158;8.642;2023-12-14T06:44:36;6.40;;;2.15;;
16403;SDS011;8311;50.158;8.642;2023-12-14T06:47:30;7.38;;;2.38;;
16403;SDS011;8311;50.158;8.642;2023-12-14T06:50:24;5.03;;;1.90;;
16403;SDS011;8311;50.158;8.642;2023-12-14T06:53:17;9.55;;;2.00;;
16403;SDS011;8311;50.158;8.642;2023-12-14T06:56:11;5.10;;;1.75;;
16403;SDS011;8311;50.158;8.642;2023-12-14T06:59:05;8.05;;;1.60;;
16403;SDS011;8311;50.158;8.642;2023-12-14T07:01:59;4.68;;;1.90;;
16403;SDS011;8311;50.158;8.642;2023-12-14T07:04:52;5.35;;;1.60;;
16403;SDS011;8311;50.158;8.642;2023-12-14T07:07:45;3.83;;;1.73;;
16403;SDS011;8311;50.158;8.642;2023-12-14T07:10:40;4.25;;;1.90;;
16403;SDS011;8311;50.158;8.642;2023-12-14T07:13:34;7.75;;;2.13;;
16403;SDS011;8311;50.158;8.642;2023-12-14T07:16:28;6.95;;;2.10;;
16403;SDS011;8311;50.158;8.642;2023-12-14T07:19:22;6.03;;;2.20;;
16403;SDS011;8311;50.158;8.642;2023-12-14T07:22:15;8.27;;;2.60;;
16403;SDS011;8311;50.158;8.642;2023-12-14T07:25:08;7.65;;;2.17;;
16403;SDS011;8311;50.158;8.642;2023-12-14T07:28:01;11.40;;;2.60;;
16403;SDS011;8311;50.158;8.642;2023-12-14T07:30:54;6.20;;;2.28;;
16403;SDS011;8311;50.158;8.642;2023-12-14T07:33:48;7.22;;;2.05;;
16403;SDS011;8311;50.158;8.642;2023-12-14T07:36:42;7.18;;;1.75;;
16403;SDS011;8311;50.158;8.642;2023-12-14T07:39:35;3.97;;;1.85;;
16403;SDS011;8311;50.158;8.642;2023-12-14T07:42:28;6.18;;;1.98;;
16403;SDS011;8311;50.158;8.642;2023-12-14T07:45:22;3.70;;;2.08;;
16403;SDS011;8311;50.158;8.642;2023-12-14T07:48:15;6.63;;;2.40;;
16403;SDS011;8311;50.158;8.642;2023-12-14T07:51:08;8.02;;;2.58;;
16403;SDS011;8311;50.158;8.642;2023-12-14T07:54:02;5.18;;;1.92;;
16403;SDS011;8311;50.158;8.642;2023-12-14T07:56:56;2.60;;;1.60;;
16403;SDS011;8311;50.158;8.642;2023-12-14T07:59:49;7.05;;;1.90;;
16403;SDS011;8311;50.158;8.642;2023-12-14T08:02:42;8.55;;;2.15;;
16403;SDS011;8311;50.158;8.642;2023-12-14T08:05:35;5.53;;;1.80;;
16403;SDS011;8311;50.158;8.642;2023-12-14T08:08:29;6.53;;;2.17;;
16403;SDS011;8311;50.158;8.642;2023-12-14T08:11:24;8.40;;;2.13;;
16403;SDS011;8311;50.158;8.642;2023-12-14T08:14:17;5.80;;;2.25;;
16403;SDS011;8311;50.158;8.642;2023-12-14T08:17:10;7.03;;;2.00;;
16403;SDS011;8311;50.158;8.642;2023-12-14T08:20:03;9.20;;;2.17;;
16403;SDS011;8311;50.158;8.642;2023-12-14T08:23:00;5.20;;;2.00;;
16403;SDS011;8311;50.158;8.642;2023-12-14T08:25:53;7.65;;;1.80;;
16403;SDS011;8311;50.158;8.642;2023-12-14T08:28:49;6.40;;;2.35;;
16403;SDS011;8311;50.158;8.642;2023-12-14T08:31:42;8.48;;;2.50;;
16403;SDS011;8311;50.158;8.642;2023-12-14T08:34:35;6.13;;;2.00;;
16403;SDS011;8311;50.158;8.642;2023-12-14T08:37:29;16.45;;;2.78;;
16403;SDS011;8311;50.158;8.642;2023-12-14T08:40:22;7.50;;;2.28;;
16403;SDS011;8311;50.158;8.642;2023-12-14T08:43:16;7.93;;;2.88;;
16403;SDS011;8311;50.158;8.642;2023-12-14T08:46:10;9.15;;;2.80;;
16403;SDS011;8311;50.158;8.642;2023-12-14T08:49:04;5.65;;;2.75;;
16403;SDS011;8311;50.158;8.642;2023-12-14T08:51:58;7.93;;;2.65;;
16403;SDS011;8311;50.158;8.642;2023-12-14T08:54:51;10.77;;;2.88;;
16403;SDS011;8311;50.158;8.642;2023-12-14T08:57:44;9.45;;;2.25;;
16403;SDS011;8311;50.158;8.642;2023-12-14T09:00:37;7.63;;;2.33;;
16403;SDS011;8311;50.158;8.642;2023-12-14T09:03:33;6.82;;;2.10;;
16403;SDS011;8311;50.158;8.642;2023-12-14T09:06:26;7.20;;;2.42;;
16403;SDS011;8311;50.158;8.642;2023-12-14T09:09:19;11.25;;;2.60;;
16403;SDS011;8311;50.158;8.642;2023-12-14T09:12:12;11.80;;;2.92;;
16403;SDS011;8311;50.158;8.642;2023-12-14T09:15:07;7.97;;;3.15;;
16403;SDS011;8311;50.158;8.642;2023-12-14T09:18:00;9.07;;;3.40;;
16403;SDS011;8311;50.158;8.642;2023-12-14T09:20:56;9.18;;;2.92;;
16403;SDS011;8311;50.158;8.642;2023-12-14T09:23:49;11.85;;;3.03;;
16403;SDS011;8311;50.158;8.642;2023-12-14T09:26:44;12.90;;;3.00;;
16403;SDS011;8311;50.158;8.642;2023-12-14T09:29:38;15.80;;;3.03;;
16403;SDS011;8311;50.158;8.642;2023-12-14T09:32:31;9.82;;;2.80;;
16403;SDS011;8311;50.158;8.642;2023-12-14T09:35:25;11.45;;;2.75;;
16403;SDS011;8311;50.158;8.642;2023-12-14T09:38:21;11.13;;;2.72;;
16403;SDS011;8311;50.158;8.642;2023-12-14T09:41:14;8.35;;;2.63;;
16403;SDS011;8311;50.158;8.642;2023-12-14T09:44:07;12.55;;;3.08;;
16403;SDS011;8311;50.158;8.642;2023-12-14T09:47:01;8.10;;;2.95;;
16403;SDS011;8311;50.158;8.642;2023-12-14T09:49:58;8.20;;;3.22;;
16403;SDS011;8311;50.158;8.642;2023-12-14T09:52:54;7.32;;;2.40;;
16403;SDS011;8311;50.158;8.642;2023-12-14T09:55:49;6.85;;;2.58;;
16403;SDS011;8311;50.158;8.642;2023-12-14T09:58:42;8.13;;;2.83;;
16403;SDS011;8311;50.158;8.642;2023-12-14T10:01:35;7.70;;;3.13;;
16403;SDS011;8311;50.158;8.642;2023-12-14T10:04:28;11.50;;;3.38;;
16403;SDS011;8311;50.158;8.642;2023-12-14T10:07:25;7.05;;;2.38;;
16403;SDS011;8311;50.158;8.642;2023-12-14T10:10:18;7.60;;;3.22;;
16403;SDS011;8311;50.158;8.642;2023-12-14T10:13:14;10.48;;;3.20;;
16403;SDS011;8311;50.158;8.642;2023-12-14T10:16:07;11.82;;;3.20;;
16403;SDS011;8311;50.158;8.642;2023-12-14T10:19:00;9.32;;;2.47;;
16403;SDS011;8311;50.158;8.642;2023-12-14T10:21:53;16.50;;;3.33;;
16403;SDS011;8311;50.158;8.642;2023-12-14T10:24:47;10.57;;;3.22;;
16403;SDS011;8311;50.158;8.642;2023-12-14T10:27:41;7.75;;;3.40;;
16403;SDS011;8311;50.158;8.642;2023-12-14T10:30:36;11.38;;;4.47;;
16403;SDS011;8311;50.158;8.642;2023-12-14T10:33:29;9.85;;;3.55;;
16403;SDS011;8311;50.158;8.642;2023-12-14T10:36:42;9.65;;;3.20;;
16403;SDS011;8311;50.158;8.642;2023-12-14T10:39:38;10.95;;;3.63;;
16403;SDS011;8311;50.158;8.642;2023-12-14T10:42:36;8.88;;;3.35;;
16403;SDS011;8311;50.158;8.642;2023-12-14T10:45:32;14.80;;;3.97;;
16403;SDS011;8311;50.158;8.642;2023-12-14T10:48:27;8.18;;;3.50;;
16403;SDS011;8311;50.158;8.642;2023-12-14T10:51:23;9.13;;;2.67;;
16403;SDS011;8311;50.158;8.642;2023-12-14T10:54:19;9.45;;;2.80;;
16403;SDS011;8311;50.158;8.642;2023-12-14T10:57:12;7.00;;;2.90;;
16403;SDS011;8311;50.158;8.642;2023-12-14T11:00:06;7.45;;;2.92;;
16403;SDS011;8311;50.158;8.642;2023-12-14T11:03:03;5.68;;;2.63;;
16403;SDS011;8311;50.158;8.642;2023-12-14T11:05:59;9.43;;;3.30;;
16403;SDS011;8311;50.158;8.642;2023-12-14T11:09:04;7.63;;;2.75;;
16403;SDS011;8311;50.158;8.642;2023-12-14T11:11:58;11.20;;;3.33;;
16403;SDS011;8311;50.158;8.642;2023-12-14T11:14:55;5.22;;;2.60;;
16403;SDS011;8311;50.158;8.642;2023-12-14T11:21:18;8.07;;;2.97;;
16403;SDS011;8311;50.158;8.642;2023-12-14T11:24:12;9.35;;;2.92;;
16403;SDS011;8311;50.158;8.642;2023-12-14T11:27:05;9.75;;;2.72;;
16403;SDS011;8311;50.158;8.642;2023-12-14T11:29:59;3.08;;;1.25;;
16403;SDS011;8311;50.158;8.642;2023-12-14T11:32:54;7.40;;;2.15;;
16403;SDS011;8311;50.158;8.642;2023-12-14T11:35:47;5.40;;;2.35;;
16403;SDS011;8311;50.158;8.642;2023-12-14T11:38:44;4.88;;;2.22;;
16403;SDS011;8311;50.158;8.642;2023-12-14T11:41:38;4.78;;;1.90;;
16403;SDS011;8311;50.158;8.642;2023-12-14T11:44:31;5.10;;;2.17;;
16403;SDS011;8311;50.158;8.642;2023-12-14T11:47:26;4.30;;;1.90;;
16403;SDS011;8311;50.158;8.642;2023-12-14T11:50:19;5.85;;;1.90;;
16403;SDS011;8311;50.158;8.642;2023-12-14T11:53:13;6.07;;;2.30;;
16403;SDS011;8311;50.158;8.642;2023-12-14T11:56:08;5.10;;;2.03;;
16403;SDS011;8311;50.158;8.642;2023-12-14T11:59:02;7.43;;;1.80;;
16403;SDS011;8311;50.158;8.642;2023-12-14T12:01:56;4.95;;;2.17;;
16403;SDS011;8311;50.158;8.642;2023-12-14T12:04:50;4.65;;;1.80;;
16403;SDS011;8311;50.158;8.642;2023-12-14T12:07:45;4.72;;;2.38;;
16403;SDS011;8311;50.158;8.642;2023-12-14T12:10:39;6.25;;;2.20;;
16403;SDS011;8311;50.158;8.642;2023-12-14T12:13:35;3.63;;;2.00;;
16403;SDS011;8311;50.158;8.642;2023-12-14T12:16:28;6.28;;;2.22;;
16403;SDS011;8311;50.158;8.642;2023-12-14T12:19:22;5.15;;;2.40;;
16403;SDS011;8311;50.158;8.642;2023-12-14T12:22:17;7.63;;;2.15;;
16403;SDS011;8311;50.158;8.642;2023-12-14T12:25:11;4.07;;;1.88;;
16403;SDS011;8311;50.158;8.642;2023-12-14T12:28:07;5.03;;;1.80;;
16403;SDS011;8311;50.158;8.642;2023-12-14T12:31:02;5.05;;;1.88;;
16403;SDS011;8311;50.158;8.642;2023-12-14T12:33:55;4.57;;;1.88;;
16403;SDS011;8311;50.158;8.642;2023-12-14T12:36:49;4.63;;;2.00;;
16403;SDS011;8311;50.158;8.642;2023-12-14T12:39:42;3.95;;;2.28;;
16403;SDS011;8311;50.158;8.642;2023-12-14T12:42:35;4.47;;;2.03;;
16403;SDS011;8311;50.158;8.642;2023-12-14T12:45:28;4.05;;;1.85;;
16403;SDS011;8311;50.158;8.642;2023-12-14T12:48:25;4.65;;;2.00;;
16403;SDS011;8311;50.158;8.642;2023-12-14T12:51:19;3.45;;;1.70;;
16403;SDS011;8311;50.158;8.642;2023-12-14T12:54:12;5.85;;;1.70;;
16403;SDS011;8311;50.158;8.642;2023-12-14T12:57:05;6.70;;;1.92;;
16403;SDS011;8311;50.158;8.642;2023-12-14T12:59:58;4.53;;;2.03;;
16403;SDS011;8311;50.158;8.642;2023-12-14T13:02:51;4.78;;;1.85;;
16403;SDS011;8311;50.158;8.642;2023-12-14T13:05:48;4.57;;;1.60;;
16403;SDS011;8311;50.158;8.642;2023-12-14T13:08:42;6.40;;;1.88;;
16403;SDS011;8311;50.158;8.642;2023-12-14T13:11:34;2.88;;;1.60;;
16403;SDS011;8311;50.158;8.642;2023-12-14T13:14:27;3.67;;;1.90;;
16403;SDS011;8311;50.158;8.642;2023-12-14T13:17:21;3.92;;;1.77;;
16403;SDS011;8311;50.158;8.642;2023-12-14T13:20:14;4.90;;;1.50;;
16403;SDS011;8311;50.158;8.642;2023-12-14T13:23:11;3.60;;;1.73;;
16403;SDS011;8311;50.158;8.642;2023-12-14T13:26:03;3.33;;;1.70;;
16403;SDS011;8311;50.158;8.642;2023-12-14T13:28:56;4.80;;;1.77;;
16403;SDS011;8311;50.158;8.642;2023-12-14T13:31:50;5.35;;;1.88;;
16403;SDS011;8311;50.158;8.642;2023-12-14T13:34:44;5.65;;;1.92;;
16403;SDS011;8311;50.158;8.642;2023-12-14T13:37:36;3.95;;;1.60;;
16403;SDS011;8311;50.158;8.642;2023-12-14T13:40:32;6.22;;;1.98;;
16403;SDS011;8311;50.158;8.642;2023-12-14T13:43:25;4.65;;;1.70;;
16403;SDS011;8311;50.158;8.642;2023-12-14T13:46:19;3.17;;;1.38;;
16403;SDS011;8311;50.158;8.642;2023-12-14T13:49:16;3.58;;;2.22;;
16403;SDS011;8311;50.158;8.642;2023-12-14T13:52:08;4.18;;;1.90;;
16403;SDS011;8311;50.158;8.642;2023-12-14T13:55:01;4.75;;;1.90;;
16403;SDS011;8311;50.158;8.642;2023-12-14T13:57:57;3.58;;;1.63;;
16403;SDS011;8311;50.158;8.642;2023-12-14T14:00:51;3.88;;;1.70;;
16403;SDS011;8311;50.158;8.642;2023-12-14T14:03:44;3.88;;;1.88;;
16403;SDS011;8311;50.158;8.642;2023-12-14T14:06:38;3.83;;;1.50;;
16403;SDS011;8311;50.158;8.642;2023-12-14T14:09:31;2.50;;;1.33;;
16403;SDS011;8311;50.158;8.642;2023-12-14T14:12:25;2.95;;;1.58;;
16403;SDS011;8311;50.158;8.642;2023-12-14T14:15:20;5.35;;;1.88;;
16403;SDS011;8311;50.158;8.642;2023-12-14T14:18:14;4.45;;;1.80;;
16403;SDS011;8311;50.158;8.642;2023-12-14T14:21:07;5.05;;;1.67;;
16403;SDS011;8311;50.158;8.642;2023-12-14T14:23:59;2.33;;;1.40;;
16403;SDS011;8311;50.158;8.642;2023-12-14T14:26:52;3.10;;;1.40;;
16403;SDS011;8311;50.158;8.642;2023-12-14T14:29:45;3.08;;;1.42;;
16403;SDS011;8311;50.158;8.642;2023-12-14T14:32:40;5.05;;;1.73;;
16403;SDS011;8311;50.158;8.642;2023-12-14T14:35:33;3.08;;;1.65;;
16403;SDS011;8311;50.158;8.642;2023-12-14T14:38:28;2.58;;;1.50;;
16403;SDS011;8311;50.158;8.642;2023-12-14T14:41:22;5.25;;;1.63;;
16403;SDS011;8311;50.158;8.642;2023-12-14T14:44:15;4.57;;;1.75;;
16403;SDS011;8311;50.158;8.642;2023-12-14T14:47:10;3.17;;;1.67;;
16403;SDS011;8311;50.158;8.642;2023-12-14T14:50:06;2.58;;;1.30;;
16403;SDS011;8311;50.158;8.642;2023-12-14T14:53:00;3.25;;;1.50;;
16403;SDS011;8311;50.158;8.642;2023-12-14T14:55:57;5.55;;;2.17;;
16403;SDS011;8311;50.158;8.642;2023-12-14T14:58:51;3.30;;;1.55;;
16403;SDS011;8311;50.158;8.642;2023-12-14T15:01:45;2.35;;;1.30;;
16403;SDS011;8311;50.158;8.642;2023-12-14T15:04:38;4.60;;;1.50;;
16403;SDS011;8311;50.158;8.642;2023-12-14T15:07:33;2.65;;;1.58;;
16403;SDS011;8311;50.158;8.642;2023-12-14T15:10:26;2.80;;;1.60;;
16403;SDS011;8311;50.158;8.642;2023-12-14T15:13:19;2.55;;;1.33;;
16403;SDS011;8311;50.158;8.642;2023-12-14T15:16:13;4.72;;;1.73;;
16403;SDS011;8311;50.158;8.642;2023-12-14T15:19:07;3.25;;;1.70;;
16403;SDS011;8311;50.158;8.642;2023-12-14T15:22:01;5.07;;;1.67;;
16403;SDS011;8311;50.158;8.642;2023-12-14T15:24:56;2.33;;;1.33;;
16403;SDS011;8311;50.158;8.642;2023-12-14T15:27:49;2.83;;;1.58;;
16403;SDS011;8311;50.158;8.642;2023-12-14T15:30:41;2.42;;;1.13;;
16403;SDS011;8311;50.158;8.642;2023-12-14T15:33:35;5.63;;;1.65;;
16403;SDS011;8311;50.158;8.642;2023-12-14T15:36:28;3.42;;;1.65;;
16403;SDS011;8311;50.158;8.642;2023-12-14T15:39:24;3.38;;;1.45;;
16403;SDS011;8311;50.158;8.642;2023-12-14T15:42:18;2.53;;;1.33;;
16403;SDS011;8311;50.158;8.642;2023-12-14T15:45:11;4.18;;;1.90;;
16403;SDS011;8311;50.158;8.642;2023-12-14T15:48:05;2.08;;;1.10;;
16403;SDS011;8311;50.158;8.642;2023-12-14T15:50:59;2.60;;;1.30;;
16403;SDS011;8311;50.158;8.642;2023-12-14T15:53:58;4.38;;;1.40;;
16403;SDS011;8311;50.158;8.642;2023-12-14T15:56:52;4.72;;;1.52;;
16403;SDS011;8311;50.158;8.642;2023-12-14T15:59:46;2.20;;;1.25;;
16403;SDS011;8311;50.158;8.642;2023-12-14T16:02:39;3.65;;;1.58;;
16403;SDS011;8311;50.158;8.642;2023-12-14T16:05:33;2.50;;;1.30;;
16403;SDS011;8311;50.158;8.642;2023-12-14T16:08:27;3.05;;;1.45;;
16403;SDS011;8311;50.158;8.642;2023-12-14T16:11:20;1.83;;;1.50;;
16403;SDS011;8311;50.158;8.642;2023-12-14T16:14:13;3.03;;;1.50;;
16403;SDS011;8311;50.158;8.642;2023-12-14T16:17:09;2.88;;;1.30;;
16403;SDS011;8311;50.158;8.642;2023-12-14T16:20:02;2.20;;;1.30;;
16403;SDS011;8311;50.158;8.642;2023-12-14T16:22:57;3.90;;;1.42;;
16403;SDS011;8311;50.158;8.642;2023-12-14T16:25:50;2.25;;;1.30;;
16403;SDS011;8311;50.158;8.642;2023-12-14T16:28:44;4.05;;;1.42;;
16403;SDS011;8311;50.158;8.642;2023-12-14T16:31:39;3.08;;;1.20;;
16403;SDS011;8311;50.158;8.642;2023-12-14T16:34:35;2.55;;;1.42;;
16403;SDS011;8311;50.158;8.642;2023-12-14T16:37:28;3.75;;;1.27;;
16403;SDS011;8311;50.158;8.642;2023-12-14T16:40:22;4.75;;;2.17;;
16403;SDS011;8311;50.158;8.642;2023-12-14T16:43:15;1.80;;;1.17;;
16403;SDS011;8311;50.158;8.642;2023-12-14T16:46:10;2.78;;;1.60;;
16403;SDS011;8311;50.158;8.642;2023-12-14T16:49:08;2.60;;;1.15;;
16403;SDS011;8311;50.158;8.642;2023-12-14T16:52:02;2.67;;;1.20;;
16403;SDS011;8311;50.158;8.642;2023-12-14T16:54:55;3.65;;;1.38;;
16403;SDS011;8311;50.158;8.642;2023-12-14T16:57:49;2.85;;;1.25;;
16403;SDS011;8311;50.158;8.642;2023-12-14T17:00:42;3.00;;;1.40;;
16403;SDS011;8311;50.158;8.642;2023-12-14T17:03:35;2.67;;;1.27;;
16403;SDS011;8311;50.158;8.642;2023-12-14T17:06:28;4.45;;;1.35;;
16403;SDS011;8311;50.158;8.642;2023-12-14T17:09:22;2.90;;;1.50;;
16403;SDS011;8311;50.158;8.642;2023-12-14T17:12:19;2.40;;;1.42;;
16403;SDS011;8311;50.158;8.642;2023-12-14T17:15:13;3.33;;;1.60;;
16403;SDS011;8311;50.158;8.642;2023-12-14T17:18:06;4.88;;;1.20;;
16403;SDS011;8311;50.158;8.642;2023-12-14T17:20:58;4.80;;;1.48;;
16403;SDS011;8311;50.158;8.642;2023-12-14T17:23:52;2.35;;;1.30;;
16403;SDS011;8311;50.158;8.642;2023-12-14T17:26:48;2.03;;;1.20;;
16403;SDS011;8311;50.158;8.642;2023-12-14T17:29:42;2.80;;;1.45;;
16403;SDS011;8311;50.158;8.642;2023-12-14T17:32:35;3.03;;;1.48;;
16403;SDS011;8311;50.158;8.642;2023-12-14T17:35:28;3.05;;;1.40;;
16403;SDS011;8311;50.158;8.642;2023-12-14T17:38:22;2.92;;;1.50;;
16403;SDS011;8311;50.158;8.642;2023-12-14T17:41:14;2.20;;;1.20;;
16403;SDS011;8311;50.158;8.642;2023-12-14T17:44:09;2.45;;;1.52;;
16403;SDS011;8311;50.158;8.642;2023-12-14T17:47:03;4.03;;;1.40;;